Aviation Digital Data Service (ADDS)

Output produced by METARs form (2345 UTC 20 January 2019)
found at http://www.aviationweather.gov/metar/data/
 
Forecast for: LPMT (MONTIJO (POR-AFB, PT)
Text: TAF LPMT 202303Z 2100/2124 36007KT CAVOK
Forecast period: 0000 to 1000 UTC 21 January 2019
Forecast type: FROM: standard forecast or significant change
Winds: from the N (360 degrees) at 8 MPH (7 knots; 3.6 m/s)
Visibility: 6 or more miles 10+ km)
Ceiling: unknown
Clouds: missing
Weather: NSW  (no significant weather)
Text: BECMG 2110/2112 35012KT
Forecast period: 1000 to 2000 UTC 21 January 2019
Forecast type: BECOMING: Conditions expected to become as follows by 1200 UTC 21 January 2019
Winds: from the N (350 degrees) at 14 MPH (12 knots; 6.2 m/s)
Visibility: 6 or more miles 10+ km)
Ceiling: unknown
Clouds: missing
Weather: NSW  (no significant weather)
Text: BECMG 2120/2123 34005KT FEW020 SCT030
Forecast period: 2000 UTC 21 January 2019 to 0000 UTC 22 January 2019
Forecast type: BECOMING: Conditions expected to become as follows by 2300 UTC 21 January 2019
Winds: from the NNW (340 degrees) at 6 MPH (5 knots; 2.6 m/s)
Visibility: 6 or more miles 10+ km)
Ceiling: at least 12,000 feet AGL
Clouds: few clouds at 2000 feet AGL
scattered clouds at 3000 feet AGL
Weather: NSW  (no significant weather)